Time;durP1;ratioP1;P1;durP2;ratioP2;P2;SDS_P1;SDS_P2;PMS_P1;PMS_P2;Temp;Humidity;BMP_temperature;BMP_pressure;BME280_temperature;BME280_humidity;BME280_pressure;Samples;Min_cycle;Max_cycle;Signal;HPM_P1;HPM_P2
2024/03/28 00:01:10;;;;;;;10.35;6.13;;;;;;;;;;5015096;28;20025;-65
2024/03/28 00:03:36;;;;;;;11.32;5.55;;;;;;;;;;5014770;28;20042;-65
2024/03/28 00:06:03;;;;;;;10.90;5.68;;;;;;;;;;5021950;28;20033;-66
2024/03/28 00:08:29;;;;;;;9.50;5.05;;;;;;;;;;5009107;28;20100;-65
2024/03/28 00:10:55;;;;;;;10.00;5.78;;;;;;;;;;5010746;28;20014;-66
2024/03/28 00:13:22;;;;;;;11.40;5.50;;;;;;;;;;5012552;28;20033;-66
2024/03/28 00:15:58;;;;;;;10.38;5.97;;;;;;;;;;5013466;28;20040;-65
2024/03/28 00:18:24;;;;;;;9.55;5.40;;;;;;;;;;5018517;28;20499;-65
2024/03/28 00:20:59;;;;;;;10.45;6.13;;;;;;;;;;5014119;28;20073;-65
2024/03/28 00:23:26;;;;;;;13.60;6.30;;;;;;;;;;5017493;28;20036;-65
2024/03/28 00:25:55;;;;;;;10.77;5.63;;;;;;;;;;5015183;28;20048;-66
2024/03/28 00:28:21;;;;;;;11.02;6.18;;;;;;;;;;5015763;28;20025;-66
2024/03/28 00:30:47;;;;;;;12.27;6.38;;;;;;;;;;5017685;28;20036;-65
2024/03/28 00:33:14;;;;;;;12.68;6.45;;;;;;;;;;5007923;28;20049;-65
2024/03/28 00:35:43;;;;;;;11.88;6.10;;;;;;;;;;5013398;28;20431;-64
2024/03/28 00:38:09;;;;;;;11.73;6.25;;;;;;;;;;5010834;28;20037;-65
2024/03/28 00:40:35;;;;;;;10.07;6.18;;;;;;;;;;5012585;28;20041;-65
2024/03/28 00:43:01;;;;;;;11.13;5.88;;;;;;;;;;5014017;28;20026;-65
2024/03/28 00:45:27;;;;;;;11.18;5.80;;;;;;;;;;5015534;28;20014;-65
2024/03/28 00:47:53;;;;;;;13.43;6.40;;;;;;;;;;5016205;28;20033;-65
2024/03/28 00:50:18;;;;;;;10.35;5.85;;;;;;;;;;5020603;28;20438;-65
2024/03/28 00:52:44;;;;;;;11.95;6.80;;;;;;;;;;5009750;28;20040;-65
2024/03/28 00:55:10;;;;;;;11.95;6.38;;;;;;;;;;5014797;28;20235;-65
2024/03/28 00:57:36;;;;;;;11.90;6.25;;;;;;;;;;5023415;28;20045;-65
2024/03/28 01:00:03;;;;;;;14.82;6.43;;;;;;;;;;5010795;28;20125;-65
2024/03/28 01:02:29;;;;;;;13.23;7.03;;;;;;;;;;5010237;28;20046;-65
2024/03/28 01:04:54;;;;;;;13.40;7.47;;;;;;;;;;5024659;28;20370;-65
2024/03/28 01:07:20;;;;;;;12.20;6.60;;;;;;;;;;5010283;28;20038;-65
2024/03/28 01:09:47;;;;;;;16.33;6.88;;;;;;;;;;5014196;28;20037;-65
2024/03/28 01:12:13;;;;;;;12.52;6.80;;;;;;;;;;5009320;28;20121;-65
2024/03/28 01:14:39;;;;;;;13.18;6.35;;;;;;;;;;5036461;28;20138;-65
2024/03/28 01:17:05;;;;;;;13.52;6.57;;;;;;;;;;5004208;28;20026;-65
2024/03/28 01:19:31;;;;;;;11.90;6.30;;;;;;;;;;5015100;28;20087;-65
2024/03/28 01:21:56;;;;;;;11.07;6.22;;;;;;;;;;5021100;28;20083;-65
2024/03/28 01:24:23;;;;;;;13.57;6.65;;;;;;;;;;5017016;28;20017;-65
2024/03/28 01:26:49;;;;;;;13.13;6.70;;;;;;;;;;5010375;28;20187;-65
2024/03/28 01:29:15;;;;;;;16.00;6.80;;;;;;;;;;5021031;28;20414;-66
2024/03/28 01:31:41;;;;;;;11.18;5.90;;;;;;;;;;5012000;28;20136;-65
2024/03/28 01:34:07;;;;;;;12.98;6.32;;;;;;;;;;5013429;28;20042;-65
2024/03/28 01:36:33;;;;;;;12.38;5.57;;;;;;;;;;5012453;28;20084;-65
2024/03/28 01:38:58;;;;;;;10.30;6.03;;;;;;;;;;5019773;28;20109;-65
2024/03/28 01:41:24;;;;;;;12.38;6.55;;;;;;;;;;5014220;28;20365;-66
2024/03/28 01:43:50;;;;;;;11.15;6.07;;;;;;;;;;5020954;28;20048;-65
2024/03/28 01:46:17;;;;;;;11.00;6.10;;;;;;;;;;5038904;28;20030;-65
2024/03/28 01:48:44;;;;;;;13.55;6.85;;;;;;;;;;5019756;28;20128;-65
2024/03/28 01:51:10;;;;;;;11.80;5.80;;;;;;;;;;5013305;28;20025;-65
2024/03/28 01:53:36;;;;;;;11.63;6.13;;;;;;;;;;5019330;28;20098;-65
2024/03/28 01:56:02;;;;;;;13.80;6.45;;;;;;;;;;5019604;28;20045;-67
2024/03/28 01:58:29;;;;;;;10.77;5.45;;;;;;;;;;5016138;28;20049;-65
2024/03/28 02:00:55;;;;;;;16.00;6.85;;;;;;;;;;5023217;28;20034;-66
2024/03/28 02:03:21;;;;;;;11.75;6.20;;;;;;;;;;5021562;28;20060;-65
2024/03/28 02:05:47;;;;;;;11.20;5.75;;;;;;;;;;5022907;28;20026;-67
2024/03/28 02:08:13;;;;;;;12.07;6.57;;;;;;;;;;5009916;28;20442;-65
2024/03/28 02:10:39;;;;;;;14.63;7.05;;;;;;;;;;5011580;28;20030;-65
2024/03/28 02:13:05;;;;;;;13.27;6.75;;;;;;;;;;5017761;28;20034;-65
2024/03/28 02:15:31;;;;;;;11.05;5.85;;;;;;;;;;5011282;28;20053;-65
2024/03/28 02:17:57;;;;;;;10.77;6.18;;;;;;;;;;5018310;28;20126;-65
2024/03/28 02:20:23;;;;;;;12.98;6.55;;;;;;;;;;5010699;28;20037;-65
2024/03/28 02:22:49;;;;;;;9.95;5.30;;;;;;;;;;5013616;28;20407;-66
2024/03/28 02:25:15;;;;;;;11.52;5.63;;;;;;;;;;5013559;28;20455;-66
2024/03/28 02:27:41;;;;;;;9.75;4.88;;;;;;;;;;5010290;28;20068;-65
2024/03/28 02:30:07;;;;;;;11.38;6.03;;;;;;;;;;5015448;28;20342;-65
2024/03/28 02:32:33;;;;;;;15.23;5.57;;;;;;;;;;5016784;28;20049;-65
2024/03/28 02:34:59;;;;;;;9.48;4.95;;;;;;;;;;5010381;28;20026;-65
2024/03/28 02:37:25;;;;;;;12.43;6.32;;;;;;;;;;5017778;28;20030;-65
2024/03/28 02:39:51;;;;;;;10.82;5.22;;;;;;;;;;5011557;28;20041;-65
2024/03/28 02:42:17;;;;;;;12.68;5.47;;;;;;;;;;5014626;28;20059;-65
2024/03/28 02:44:43;;;;;;;12.00;5.57;;;;;;;;;;5016430;28;20057;-65
2024/03/28 02:47:09;;;;;;;9.13;4.82;;;;;;;;;;5010700;28;20029;-65
2024/03/28 02:49:35;;;;;;;9.52;5.05;;;;;;;;;;5008188;28;20026;-66
2024/03/28 02:52:01;;;;;;;7.90;4.43;;;;;;;;;;5010771;28;20397;-65
2024/03/28 02:54:27;;;;;;;9.88;4.85;;;;;;;;;;5011813;28;20072;-65
2024/03/28 02:56:52;;;;;;;9.52;4.90;;;;;;;;;;5012153;28;20025;-65
2024/03/28 02:59:18;;;;;;;8.55;4.53;;;;;;;;;;5010629;28;20050;-65
2024/03/28 03:01:45;;;;;;;8.18;4.38;;;;;;;;;;5012091;28;20136;-65
2024/03/28 03:04:11;;;;;;;6.57;3.97;;;;;;;;;;5013421;28;20064;-65
2024/03/28 03:06:37;;;;;;;7.47;4.18;;;;;;;;;;5014095;28;20030;-65
2024/03/28 03:09:02;;;;;;;11.38;4.32;;;;;;;;;;5013132;28;20109;-65
2024/03/28 03:11:28;;;;;;;10.35;4.60;;;;;;;;;;5014268;28;20029;-65
2024/03/28 03:13:54;;;;;;;7.63;4.10;;;;;;;;;;5017850;28;20034;-66
2024/03/28 03:16:20;;;;;;;9.48;4.38;;;;;;;;;;5015162;28;20339;-65
2024/03/28 03:18:49;;;;;;;9.43;3.40;;;;;;;;;;5020609;28;20037;-64
2024/03/28 03:21:16;;;;;;;7.75;3.75;;;;;;;;;;5012758;28;20025;-65
2024/03/28 03:23:51;;;;;;;7.78;4.10;;;;;;;;;;5014378;28;20034;-66
2024/03/28 03:26:22;;;;;;;8.05;4.00;;;;;;;;;;5010854;28;20109;-65
2024/03/28 03:34:36;;;;;;;7.80;4.00;;;;;;;;;;5017146;28;20532;-65
2024/03/28 03:37:08;;;;;;;7.20;3.78;;;;;;;;;;5014523;28;20066;-65
2024/03/28 03:39:33;;;;;;;8.45;4.22;;;;;;;;;;5011870;28;20167;-65
2024/03/28 03:41:59;;;;;;;8.07;3.78;;;;;;;;;;5008800;28;20038;-65
2024/03/28 03:44:25;;;;;;;9.40;3.40;;;;;;;;;;5016273;28;20106;-65
2024/03/28 03:46:51;;;;;;;6.00;3.55;;;;;;;;;;5012289;28;20069;-66
2024/03/28 03:49:17;;;;;;;8.07;3.65;;;;;;;;;;5014799;28;20026;-65
2024/03/28 03:51:43;;;;;;;6.57;3.22;;;;;;;;;;5009078;28;20022;-66
2024/03/28 03:54:09;;;;;;;7.55;3.45;;;;;;;;;;5014911;28;20121;-67
2024/03/28 03:56:35;;;;;;;6.00;2.80;;;;;;;;;;5011809;28;20099;-66
2024/03/28 03:59:02;;;;;;;8.07;3.05;;;;;;;;;;5010284;28;20458;-66
2024/03/28 04:01:28;;;;;;;7.18;3.67;;;;;;;;;;5011548;28;20022;-65
2024/03/28 04:03:54;;;;;;;8.38;3.28;;;;;;;;;;5010165;28;20037;-65
2024/03/28 04:06:20;;;;;;;6.25;3.08;;;;;;;;;;5012698;28;20354;-67
2024/03/28 04:08:46;;;;;;;6.85;3.35;;;;;;;;;;5009756;28;20030;-66
2024/03/28 04:11:13;;;;;;;8.32;3.67;;;;;;;;;;5013048;28;20295;-65
2024/03/28 04:13:39;;;;;;;8.30;4.38;;;;;;;;;;5012059;28;20043;-65
2024/03/28 04:16:05;;;;;;;8.38;3.67;;;;;;;;;;5009949;28;20041;-65
2024/03/28 04:18:31;;;;;;;7.80;3.88;;;;;;;;;;5012774;28;20029;-65
2024/03/28 04:20:57;;;;;;;8.30;4.15;;;;;;;;;;5017965;28;20108;-66
2024/03/28 04:23:23;;;;;;;8.07;4.07;;;;;;;;;;5014245;28;20120;-65
2024/03/28 04:25:59;;;;;;;9.25;4.35;;;;;;;;;;5006987;28;20050;-66
2024/03/28 04:28:25;;;;;;;10.98;4.68;;;;;;;;;;5010193;28;20034;-64
2024/03/28 04:30:51;;;;;;;10.00;5.03;;;;;;;;;;5017899;28;20042;-64
2024/03/28 04:33:17;;;;;;;15.05;5.72;;;;;;;;;;5010996;28;20022;-64
2024/03/28 04:35:43;;;;;;;8.77;3.70;;;;;;;;;;5014937;28;20034;-65
2024/03/28 04:38:09;;;;;;;8.32;4.53;;;;;;;;;;5016717;28;20139;-64
2024/03/28 04:40:35;;;;;;;7.38;3.83;;;;;;;;;;5008580;28;20041;-65
2024/03/28 04:43:01;;;;;;;10.55;5.15;;;;;;;;;;5007044;28;20106;-65
2024/03/28 04:45:27;;;;;;;9.63;3.92;;;;;;;;;;5011515;28;20053;-65
2024/03/28 04:47:53;;;;;;;6.78;3.80;;;;;;;;;;5011708;28;20095;-65
2024/03/28 04:50:20;;;;;;;9.55;4.25;;;;;;;;;;5012434;28;20092;-65
2024/03/28 04:52:46;;;;;;;7.00;4.00;;;;;;;;;;5009749;28;20125;-64
2024/03/28 04:55:12;;;;;;;7.82;3.92;;;;;;;;;;5014744;28;20363;-65
2024/03/28 04:57:38;;;;;;;7.85;3.17;;;;;;;;;;5033281;28;20046;-66
2024/03/28 05:00:08;;;;;;;10.18;4.03;;;;;;;;;;5018617;28;20026;-65
2024/03/28 05:02:35;;;;;;;6.00;2.63;;;;;;;;;;5015511;28;20530;-65
2024/03/28 05:05:01;;;;;;;5.75;3.25;;;;;;;;;;5013989;28;20026;-64
2024/03/28 05:07:27;;;;;;;6.03;2.90;;;;;;;;;;5010474;28;20033;-67
2024/03/28 05:09:52;;;;;;;6.68;2.97;;;;;;;;;;5013984;28;20021;-65
2024/03/28 05:12:18;;;;;;;5.80;2.88;;;;;;;;;;5017241;28;20038;-64
2024/03/28 05:14:44;;;;;;;5.40;2.58;;;;;;;;;;5020518;28;20041;-65
2024/03/28 05:17:11;;;;;;;6.45;2.85;;;;;;;;;;5019450;28;20037;-65
2024/03/28 05:19:36;;;;;;;5.90;2.38;;;;;;;;;;5018541;28;20030;-65
2024/03/28 05:22:03;;;;;;;5.57;2.67;;;;;;;;;;5018757;28;20512;-65
2024/03/28 05:24:29;;;;;;;5.28;2.50;;;;;;;;;;5018620;28;20064;-65
2024/03/28 05:26:55;;;;;;;5.07;2.85;;;;;;;;;;5016635;28;20441;-65
2024/03/28 05:29:21;;;;;;;4.88;2.45;;;;;;;;;;5019197;28;20060;-64
2024/03/28 05:31:47;;;;;;;5.22;2.20;;;;;;;;;;5019020;28;20255;-64
2024/03/28 05:34:13;;;;;;;6.32;2.95;;;;;;;;;;5018788;28;20083;-65
2024/03/28 05:36:39;;;;;;;4.63;2.35;;;;;;;;;;5020821;28;20084;-64
2024/03/28 05:39:05;;;;;;;4.72;2.50;;;;;;;;;;5021505;28;20025;-65
2024/03/28 05:41:37;;;;;;;5.80;2.33;;;;;;;;;;5017604;28;20124;-64
2024/03/28 05:44:03;;;;;;;4.53;2.20;;;;;;;;;;5014487;28;20040;-64
2024/03/28 05:46:29;;;;;;;4.95;2.50;;;;;;;;;;5018021;28;20049;-64
2024/03/28 05:48:55;;;;;;;4.82;1.90;;;;;;;;;;5015371;28;20033;-64
2024/03/28 05:51:22;;;;;;;5.88;2.33;;;;;;;;;;5012011;28;20501;-65
2024/03/28 05:53:48;;;;;;;4.57;2.10;;;;;;;;;;5016940;28;20049;-66
2024/03/28 05:56:20;;;;;;;4.50;2.08;;;;;;;;;;5015622;28;20092;-64
2024/03/28 05:58:46;;;;;;;2.13;1.20;;;;;;;;;;5011897;28;20091;-65
2024/03/28 06:01:13;;;;;;;2.08;1.50;;;;;;;;;;5017650;28;20026;-65
2024/03/28 06:03:39;;;;;;;2.65;1.42;;;;;;;;;;5015680;28;20448;-65
2024/03/28 06:06:06;;;;;;;5.07;2.20;;;;;;;;;;5019987;28;20067;-64
2024/03/28 06:08:31;;;;;;;2.38;1.35;;;;;;;;;;5015685;28;20438;-65
2024/03/28 06:10:57;;;;;;;3.08;1.45;;;;;;;;;;5013054;28;20034;-66
2024/03/28 06:13:23;;;;;;;1.80;1.38;;;;;;;;;;5011003;28;20036;-64
2024/03/28 06:15:49;;;;;;;3.72;1.75;;;;;;;;;;5008983;28;20030;-65
2024/03/28 06:18:15;;;;;;;3.15;1.27;;;;;;;;;;5018731;28;20112;-66
2024/03/28 06:20:42;;;;;;;1.85;1.15;;;;;;;;;;5016156;28;20079;-65
2024/03/28 06:23:08;;;;;;;3.33;1.30;;;;;;;;;;5022314;28;20398;-64
2024/03/28 06:25:40;;;;;;;2.65;1.38;;;;;;;;;;5015355;28;20041;-64
2024/03/28 06:28:08;;;;;;;3.65;1.45;;;;;;;;;;5007433;28;20083;-64
2024/03/28 06:30:35;;;;;;;3.72;1.35;;;;;;;;;;5018519;28;20032;-64
2024/03/28 06:33:01;;;;;;;1.88;1.02;;;;;;;;;;5012662;28;20068;-64
2024/03/28 06:35:27;;;;;;;3.83;1.55;;;;;;;;;;5011579;28;20438;-64
2024/03/28 06:37:53;;;;;;;3.25;1.40;;;;;;;;;;5015779;28;20045;-65
2024/03/28 06:40:19;;;;;;;3.22;1.45;;;;;;;;;;5017916;28;20157;-64
2024/03/28 06:42:45;;;;;;;2.17;1.13;;;;;;;;;;5015986;28;20037;-64
2024/03/28 06:45:11;;;;;;;2.13;1.10;;;;;;;;;;5016954;28;20042;-65
2024/03/28 06:47:37;;;;;;;2.28;1.05;;;;;;;;;;5021964;28;20170;-64
2024/03/28 06:50:03;;;;;;;2.58;1.30;;;;;;;;;;5019079;28;20096;-65
2024/03/28 06:52:29;;;;;;;1.77;1.23;;;;;;;;;;5021062;28;20033;-66
2024/03/28 06:54:55;;;;;;;2.40;0.93;;;;;;;;;;5005822;28;20025;-64
2024/03/28 06:57:21;;;;;;;2.10;1.15;;;;;;;;;;5006782;28;20444;-66
2024/03/28 06:59:49;;;;;;;2.20;1.20;;;;;;;;;;5018648;28;20033;-64
2024/03/28 07:02:15;;;;;;;1.80;1.10;;;;;;;;;;5013656;28;20436;-64
2024/03/28 07:04:41;;;;;;;1.23;0.75;;;;;;;;;;5021985;28;20102;-64
2024/03/28 07:07:07;;;;;;;1.65;1.05;;;;;;;;;;5017120;28;20030;-65
2024/03/28 07:09:33;;;;;;;1.20;0.80;;;;;;;;;;5013674;28;20031;-64
2024/03/28 07:11:59;;;;;;;1.80;0.90;;;;;;;;;;5019651;28;20401;-64
2024/03/28 07:14:24;;;;;;;1.63;1.00;;;;;;;;;;5024331;28;20056;-64
2024/03/28 07:16:50;;;;;;;1.67;1.13;;;;;;;;;;5012576;28;20037;-64
2024/03/28 07:19:16;;;;;;;1.75;0.90;;;;;;;;;;5020702;28;20484;-65
2024/03/28 07:21:42;;;;;;;1.73;0.90;;;;;;;;;;5022269;28;20480;-65
2024/03/28 07:24:08;;;;;;;1.73;0.93;;;;;;;;;;5019969;28;20108;-65
2024/03/28 07:26:36;;;;;;;1.05;0.80;;;;;;;;;;5014994;28;20113;-64
2024/03/28 07:29:02;;;;;;;1.63;0.80;;;;;;;;;;5022081;28;20026;-65
2024/03/28 07:31:30;;;;;;;1.30;0.90;;;;;;;;;;5019433;28;20021;-65
2024/03/28 07:33:56;;;;;;;1.52;0.90;;;;;;;;;;5018568;28;20492;-64
2024/03/28 07:36:22;;;;;;;1.58;0.93;;;;;;;;;;5014668;28;20071;-64
2024/03/28 07:38:48;;;;;;;2.03;0.82;;;;;;;;;;5017746;28;20025;-65
2024/03/28 07:41:14;;;;;;;1.80;1.00;;;;;;;;;;5015189;28;20144;-65
2024/03/28 07:43:40;;;;;;;1.40;0.80;;;;;;;;;;5014773;28;20029;-65
2024/03/28 07:46:06;;;;;;;1.58;1.02;;;;;;;;;;5013737;28;20053;-65
2024/03/28 07:48:35;;;;;;;4.05;1.05;;;;;;;;;;5022190;28;20419;-65
2024/03/28 07:51:02;;;;;;;2.65;1.25;;;;;;;;;;5020899;28;20116;-64
2024/03/28 07:53:28;;;;;;;0.95;0.70;;;;;;;;;;5020506;28;20022;-65
2024/03/28 07:55:54;;;;;;;1.10;0.77;;;;;;;;;;5017901;28;20309;-65
2024/03/28 07:58:20;;;;;;;1.85;0.80;;;;;;;;;;5016834;28;20025;-65
2024/03/28 08:00:46;;;;;;;2.03;0.95;;;;;;;;;;5014394;28;20029;-64
2024/03/28 08:03:18;;;;;;;1.75;0.90;;;;;;;;;;5012338;28;20053;-66
2024/03/28 08:05:46;;;;;;;2.47;0.90;;;;;;;;;;5017301;28;20096;-65
2024/03/28 08:08:12;;;;;;;2.20;0.80;;;;;;;;;;5010911;28;20340;-65
2024/03/28 08:10:38;;;;;;;1.85;0.98;;;;;;;;;;5015025;28;20113;-65
2024/03/28 08:13:04;;;;;;;1.70;0.80;;;;;;;;;;5014566;28;20079;-65
2024/03/28 08:15:33;;;;;;;1.38;1.02;;;;;;;;;;5012348;28;20025;-65
2024/03/28 08:18:00;;;;;;;1.60;0.98;;;;;;;;;;5022368;28;20152;-65
2024/03/28 08:20:26;;;;;;;0.98;0.57;;;;;;;;;;5016330;28;20028;-66
2024/03/28 08:22:54;;;;;;;1.00;0.77;;;;;;;;;;5017585;28;20022;-65
2024/03/28 08:25:20;;;;;;;1.45;0.63;;;;;;;;;;5019332;28;20088;-65
2024/03/28 08:27:45;;;;;;;0.75;0.47;;;;;;;;;;5014032;28;20386;-65
2024/03/28 08:30:11;;;;;;;1.10;0.75;;;;;;;;;;5015416;28;20370;-65
2024/03/28 08:32:37;;;;;;;0.77;0.60;;;;;;;;;;5010790;28;20033;-65
2024/03/28 08:35:03;;;;;;;1.48;0.73;;;;;;;;;;5015494;28;20081;-65
2024/03/28 08:37:30;;;;;;;0.73;0.52;;;;;;;;;;5008518;28;20137;-66
2024/03/28 08:39:55;;;;;;;1.35;0.52;;;;;;;;;;5013788;28;20108;-65
2024/03/28 08:42:21;;;;;;;0.65;0.60;;;;;;;;;;5011267;28;20403;-66
2024/03/28 08:44:47;;;;;;;0.90;0.60;;;;;;;;;;5016478;28;20057;-65
2024/03/28 08:47:14;;;;;;;1.85;0.70;;;;;;;;;;5020314;28;20428;-64
2024/03/28 08:49:40;;;;;;;0.60;0.50;;;;;;;;;;5008059;28;20107;-64
2024/03/28 08:52:06;;;;;;;0.95;0.75;;;;;;;;;;5014898;28;20040;-65
2024/03/28 08:54:32;;;;;;;0.77;0.45;;;;;;;;;;5015425;28;20045;-65
2024/03/28 08:56:58;;;;;;;0.57;0.40;;;;;;;;;;5005386;28;22192;-65
2024/03/28 08:59:24;;;;;;;0.90;0.57;;;;;;;;;;5015717;28;20102;-66
2024/03/28 09:01:50;;;;;;;1.10;0.60;;;;;;;;;;5011117;28;20122;-65
2024/03/28 09:04:20;;;;;;;0.32;0.32;;;;;;;;;;5015937;28;20040;-65
2024/03/28 09:06:49;;;;;;;1.33;0.70;;;;;;;;;;5017120;28;20030;-65
2024/03/28 09:09:15;;;;;;;0.73;0.50;;;;;;;;;;5007823;28;20041;-65
2024/03/28 09:11:45;;;;;;;1.15;0.63;;;;;;;;;;5014143;28;20360;-65
2024/03/28 09:14:11;;;;;;;1.00;0.57;;;;;;;;;;5017384;28;20064;-65
2024/03/28 09:16:38;;;;;;;0.93;0.80;;;;;;;;;;5016576;28;20076;-65
2024/03/28 09:19:06;;;;;;;1.35;0.70;;;;;;;;;;5018737;28;20033;-65
2024/03/28 09:21:32;;;;;;;1.15;0.88;;;;;;;;;;5015600;28;20396;-65
2024/03/28 09:23:58;;;;;;;1.10;0.65;;;;;;;;;;5012545;28;20042;-65
2024/03/28 09:26:23;;;;;;;1.13;0.80;;;;;;;;;;5004613;28;20108;-65
2024/03/28 09:28:53;;;;;;;0.68;0.60;;;;;;;;;;5016435;28;20572;-65
2024/03/28 09:31:19;;;;;;;1.05;0.75;;;;;;;;;;5015702;28;20021;-65
2024/03/28 09:33:45;;;;;;;0.90;0.70;;;;;;;;;;5019645;28;20059;-66
2024/03/28 09:36:16;;;;;;;0.90;0.70;;;;;;;;;;5010589;28;20038;-66
2024/03/28 09:38:44;;;;;;;;;;;;;;;;;;5008045;28;20057;-65
2024/03/28 09:41:36;;;;;;;0.70;0.60;;;;;;;;;;5010767;28;19909;-66
2024/03/28 09:44:13;;;;;;;1.38;0.85;;;;;;;;;;5010336;28;20120;-65
2024/03/28 09:46:42;;;;;;;1.42;0.80;;;;;;;;;;5019633;28;20121;-65
2024/03/28 09:49:11;;;;;;;0.85;0.60;;;;;;;;;;5016467;28;20105;-65
2024/03/28 09:51:39;;;;;;;1.23;0.90;;;;;;;;;;5016336;28;20048;-65
2024/03/28 09:54:05;;;;;;;1.20;0.70;;;;;;;;;;5013264;28;20025;-65
2024/03/28 09:56:31;;;;;;;1.25;0.65;;;;;;;;;;5022325;28;20033;-66
2024/03/28 09:58:57;;;;;;;0.90;0.60;;;;;;;;;;5017318;28;20247;-65
2024/03/28 10:01:24;;;;;;;0.88;0.70;;;;;;;;;;5024467;28;20021;-65
2024/03/28 10:03:53;;;;;;;1.13;0.85;;;;;;;;;;5018390;28;20196;-67
2024/03/28 10:06:20;;;;;;;2.35;0.93;;;;;;;;;;5014360;28;20038;-66
2024/03/28 10:08:46;;;;;;;0.82;0.80;;;;;;;;;;5010847;28;20105;-66
2024/03/28 10:11:12;;;;;;;1.88;1.15;;;;;;;;;;5015224;28;20107;-66
2024/03/28 10:13:38;;;;;;;2.85;1.48;;;;;;;;;;5016460;28;21957;-66
2024/03/28 10:16:06;;;;;;;2.67;1.58;;;;;;;;;;5010634;28;20084;-66
2024/03/28 10:18:32;;;;;;;3.40;1.85;;;;;;;;;;5011131;28;20092;-67
2024/03/28 10:20:59;;;;;;;4.65;1.95;;;;;;;;;;5014627;28;20096;-66
2024/03/28 10:23:25;;;;;;;2.90;2.10;;;;;;;;;;5021569;28;20021;-66
2024/03/28 10:25:51;;;;;;;3.45;1.83;;;;;;;;;;5008761;28;20442;-67
2024/03/28 10:28:24;;;;;;;2.80;1.52;;;;;;;;;;5021123;28;20017;-66
2024/03/28 10:30:54;;;;;;;3.47;1.80;;;;;;;;;;5012008;28;20025;-66
2024/03/28 10:33:20;;;;;;;3.30;1.80;;;;;;;;;;5019576;28;20080;-64
2024/03/28 10:36:00;;;;;;;3.95;1.70;;;;;;;;;;5013249;28;20030;-65
2024/03/28 10:38:26;;;;;;;4.90;2.17;;;;;;;;;;5010572;28;20030;-66
2024/03/28 10:40:54;;;;;;;3.05;1.92;;;;;;;;;;5010430;28;20110;-65
2024/03/28 10:43:23;;;;;;;4.03;2.00;;;;;;;;;;5024301;28;20022;-65
2024/03/28 10:45:50;;;;;;;3.10;2.00;;;;;;;;;;5011987;28;20033;-66
2024/03/28 10:48:16;;;;;;;4.28;2.25;;;;;;;;;;5008850;28;20026;-65
2024/03/28 10:50:47;;;;;;;3.90;2.10;;;;;;;;;;5020205;28;20356;-66
2024/03/28 10:53:24;;;;;;;3.13;1.90;;;;;;;;;;5017580;28;20032;-69
2024/03/28 10:55:52;;;;;;;3.08;1.70;;;;;;;;;;5013592;28;20026;-66
2024/03/28 10:58:19;;;;;;;2.70;1.48;;;;;;;;;;5015443;28;20112;-68
2024/03/28 11:00:45;;;;;;;2.55;1.52;;;;;;;;;;5021333;28;20115;-67
2024/03/28 11:03:11;;;;;;;2.45;1.33;;;;;;;;;;5023011;28;20077;-65
2024/03/28 11:05:38;;;;;;;2.28;1.30;;;;;;;;;;5022401;28;20500;-67
2024/03/28 11:08:05;;;;;;;1.55;1.08;;;;;;;;;;5009100;28;20346;-67
2024/03/28 11:10:31;;;;;;;2.47;1.17;;;;;;;;;;5018890;28;20041;-68
2024/03/28 11:12:57;;;;;;;2.72;1.52;;;;;;;;;;5015046;28;20022;-67
2024/03/28 11:15:23;;;;;;;2.03;1.33;;;;;;;;;;5021495;28;20475;-67
2024/03/28 11:17:49;;;;;;;2.47;1.33;;;;;;;;;;5017027;28;20036;-67
2024/03/28 11:20:18;;;;;;;1.60;0.98;;;;;;;;;;5017924;28;20102;-67
2024/03/28 11:22:45;;;;;;;2.70;1.00;;;;;;;;;;5039787;28;20029;-68
2024/03/28 11:25:27;;;;;;;2.15;1.13;;;;;;;;;;5010805;28;20714;-67
2024/03/28 11:28:06;;;;;;;3.83;1.75;;;;;;;;;;5013510;28;20128;-67
2024/03/28 11:30:33;;;;;;;2.95;1.65;;;;;;;;;;5015637;28;20078;-67
2024/03/28 11:33:03;;;;;;;2.50;1.40;;;;;;;;;;5009418;28;20103;-67
2024/03/28 11:35:29;;;;;;;2.60;1.20;;;;;;;;;;5023146;28;20143;-67
2024/03/28 11:38:08;;;;;;;2.25;1.10;;;;;;;;;;5019585;28;20423;-67
2024/03/28 11:40:34;;;;;;;1.80;0.98;;;;;;;;;;5015668;28;20446;-68
2024/03/28 11:43:10;;;;;;;1.75;1.20;;;;;;;;;;5011530;28;20021;-67
2024/03/28 11:45:35;;;;;;;1.77;0.80;;;;;;;;;;5021639;28;20060;-67
2024/03/28 11:48:02;;;;;;;1.65;1.10;;;;;;;;;;5024293;28;20069;-67
2024/03/28 11:50:29;;;;;;;1.25;0.85;;;;;;;;;;5017097;28;20036;-66
2024/03/28 11:52:56;;;;;;;2.67;0.90;;;;;;;;;;5023555;28;20025;-66
2024/03/28 11:55:24;;;;;;;1.77;0.90;;;;;;;;;;5018875;28;20060;-67
2024/03/28 11:57:50;;;;;;;2.05;1.05;;;;;;;;;;5019359;28;20112;-66
2024/03/28 12:00:19;;;;;;;0.88;0.80;;;;;;;;;;5016271;28;20026;-66
2024/03/28 12:02:55;;;;;;;1.50;0.90;;;;;;;;;;5019979;28;20060;-67
2024/03/28 12:05:20;;;;;;;2.25;0.95;;;;;;;;;;5034780;28;20109;-66
2024/03/28 12:07:47;;;;;;;1.88;1.00;;;;;;;;;;5018517;28;20480;-66
2024/03/28 12:10:17;;;;;;;1.23;0.88;;;;;;;;;;5010201;28;20463;-66
2024/03/28 12:12:43;;;;;;;1.48;0.80;;;;;;;;;;5017923;28;20108;-66
2024/03/28 12:15:09;;;;;;;1.40;0.88;;;;;;;;;;5009315;28;20130;-66
2024/03/28 12:17:35;;;;;;;1.73;0.88;;;;;;;;;;5017566;28;20105;-66
2024/03/28 12:20:11;;;;;;;1.33;0.80;;;;;;;;;;5010691;28;20053;-66
2024/03/28 12:22:37;;;;;;;2.10;0.90;;;;;;;;;;5017966;28;20133;-66
2024/03/28 12:25:13;;;;;;;1.63;0.75;;;;;;;;;;5018151;28;20034;-69
2024/03/28 12:27:42;;;;;;;1.38;0.90;;;;;;;;;;5011375;28;20141;-67
2024/03/28 12:30:12;;;;;;;0.80;0.60;;;;;;;;;;5014835;28;20025;-65
2024/03/28 12:32:38;;;;;;;1.60;0.90;;;;;;;;;;5017270;28;20454;-65
2024/03/28 12:35:05;;;;;;;1.35;0.85;;;;;;;;;;5013100;28;20124;-65
2024/03/28 12:37:32;;;;;;;1.55;0.88;;;;;;;;;;5010096;28;20100;-67
2024/03/28 12:40:03;;;;;;;1.42;0.85;;;;;;;;;;5011570;28;20026;-65
2024/03/28 12:42:30;;;;;;;1.50;0.70;;;;;;;;;;5011623;28;20036;-66
2024/03/28 12:44:56;;;;;;;1.67;1.10;;;;;;;;;;5011675;28;20025;-64
2024/03/28 12:47:22;;;;;;;0.98;0.80;;;;;;;;;;5012509;28;20065;-64
2024/03/28 12:49:49;;;;;;;1.10;0.90;;;;;;;;;;5029023;28;20180;-64
2024/03/28 12:52:21;;;;;;;1.85;1.10;;;;;;;;;;5013811;28;20025;-64
2024/03/28 12:54:47;;;;;;;3.72;1.00;;;;;;;;;;5008187;28;20022;-65
2024/03/28 12:57:13;;;;;;;1.50;0.77;;;;;;;;;;5008603;28;20124;-64
2024/03/28 12:59:39;;;;;;;1.00;0.90;;;;;;;;;;5014522;28;20163;-64
2024/03/28 13:02:06;;;;;;;2.55;1.33;;;;;;;;;;5018548;28;20115;-64
2024/03/28 13:04:32;;;;;;;4.00;1.42;;;;;;;;;;5015918;28;20489;-64
2024/03/28 13:06:58;;;;;;;2.70;1.33;;;;;;;;;;5006805;28;20109;-64
2024/03/28 13:09:24;;;;;;;2.88;1.75;;;;;;;;;;5009281;28;20419;-64
2024/03/28 13:11:50;;;;;;;3.13;1.10;;;;;;;;;;5006618;28;20034;-64
2024/03/28 13:14:16;;;;;;;2.35;1.42;;;;;;;;;;5025103;28;20032;-64
2024/03/28 13:16:42;;;;;;;2.78;1.35;;;;;;;;;;5024008;28;20105;-64
2024/03/28 13:19:08;;;;;;;2.50;1.00;;;;;;;;;;5017111;28;20026;-64
2024/03/28 13:21:35;;;;;;;0.70;0.65;;;;;;;;;;5029019;28;20038;-65
2024/03/28 13:24:00;;;;;;;0.85;0.52;;;;;;;;;;5021892;28;20083;-64
2024/03/28 13:26:26;;;;;;;0.40;0.40;;;;;;;;;;5018744;28;20041;-64
2024/03/28 13:28:52;;;;;;;0.50;0.45;;;;;;;;;;5018109;28;20053;-64
2024/03/28 13:31:19;;;;;;;0.38;0.38;;;;;;;;;;5012603;28;20048;-65
2024/03/28 13:33:44;;;;;;;0.30;0.30;;;;;;;;;;5012440;28;20026;-65
2024/03/28 13:36:10;;;;;;;0.88;0.60;;;;;;;;;;5009118;28;20030;-65
2024/03/28 13:38:36;;;;;;;0.40;0.40;;;;;;;;;;5008101;28;20037;-65
2024/03/28 13:41:02;;;;;;;0.30;0.30;;;;;;;;;;5022782;28;20056;-66
2024/03/28 13:43:28;;;;;;;0.50;0.40;;;;;;;;;;5020402;28;20146;-64
2024/03/28 13:45:54;;;;;;;1.02;0.40;;;;;;;;;;5016460;28;20025;-67
2024/03/28 13:48:21;;;;;;;0.30;0.30;;;;;;;;;;5010464;28;20026;-64
2024/03/28 13:50:47;;;;;;;0.75;0.50;;;;;;;;;;5016950;28;20025;-65
2024/03/28 13:53:13;;;;;;;1.00;0.70;;;;;;;;;;5012970;28;20033;-64
2024/03/28 13:55:40;;;;;;;0.55;0.40;;;;;;;;;;5017769;28;20032;-64
2024/03/28 13:58:07;;;;;;;1.10;0.30;;;;;;;;;;5013189;28;20168;-64
2024/03/28 14:00:33;;;;;;;0.50;0.50;;;;;;;;;;5018871;28;20029;-65
2024/03/28 14:03:02;;;;;;;0.43;0.40;;;;;;;;;;5023280;28;20053;-65
2024/03/28 14:05:27;;;;;;;0.32;0.32;;;;;;;;;;5017916;28;20066;-65
2024/03/28 14:07:53;;;;;;;0.40;0.40;;;;;;;;;;5018552;28;20397;-65
2024/03/28 14:10:19;;;;;;;0.35;0.35;;;;;;;;;;5013922;28;20037;-64
2024/03/28 14:12:45;;;;;;;0.20;0.20;;;;;;;;;;5024510;28;20058;-65
2024/03/28 14:15:11;;;;;;;0.65;0.35;;;;;;;;;;5022921;28;20114;-66
2024/03/28 14:17:37;;;;;;;0.30;0.30;;;;;;;;;;5015752;28;20126;-65
2024/03/28 14:20:03;;;;;;;0.30;0.30;;;;;;;;;;5008786;28;20030;-64
2024/03/28 14:22:29;;;;;;;0.40;0.40;;;;;;;;;;5019977;28;20034;-66
2024/03/28 14:24:55;;;;;;;0.30;0.30;;;;;;;;;;5013323;28;20099;-65
2024/03/28 14:27:21;;;;;;;1.48;0.40;;;;;;;;;;5012859;28;20350;-65
2024/03/28 14:29:47;;;;;;;0.52;0.52;;;;;;;;;;5013499;28;20095;-64
2024/03/28 14:32:15;;;;;;;0.55;0.40;;;;;;;;;;5025294;28;20049;-64
2024/03/28 14:34:41;;;;;;;0.73;0.55;;;;;;;;;;5018509;28;20375;-64
2024/03/28 14:37:07;;;;;;;0.90;0.43;;;;;;;;;;5017254;28;20492;-65
2024/03/28 14:39:33;;;;;;;0.40;0.40;;;;;;;;;;5012284;28;20144;-65
2024/03/28 14:41:59;;;;;;;0.43;0.40;;;;;;;;;;5012840;28;20033;-65
2024/03/28 14:44:25;;;;;;;0.60;0.50;;;;;;;;;;5020822;28;20042;-65